Time;durP1;ratioP1;P1;durP2;ratioP2;P2;SDS_P1;SDS_P2;PMS_P1;PMS_P2;Temp;Humidity;BMP_temperature;BMP_pressure;BME280_temperature;BME280_humidity;BME280_pressure;Samples;Min_cycle;Max_cycle;Signal;HPM_P1;HPM_P2
2023/12/21 00:02:17;;;;;;;1.10;0.70;;;6.20;99.90;;;;;;4991700;28;20042;-64
2023/12/21 00:04:43;;;;;;;5.25;0.63;;;6.20;99.90;;;;;;4991898;28;20027;-64
2023/12/21 00:07:09;;;;;;;0.70;0.52;;;6.20;99.90;;;;;;4991928;28;20085;-65
2023/12/21 00:09:35;;;;;;;1.75;0.70;;;6.20;99.90;;;;;;4992712;28;20041;-65
2023/12/21 00:12:01;;;;;;;5.15;1.38;;;6.20;99.90;;;;;;4958121;28;20045;-64
2023/12/21 00:14:30;;;;;;;1.25;0.85;;;6.20;99.90;;;;;;4992283;28;20034;-65
2023/12/21 00:16:56;;;;;;;2.67;0.77;;;6.30;99.90;;;;;;4975182;28;20038;-65
2023/12/21 00:19:22;;;;;;;1.30;0.50;;;6.20;99.90;;;;;;4974786;28;20036;-64
2023/12/21 00:21:48;;;;;;;1.60;0.95;;;6.20;99.90;;;;;;4991698;28;20433;-64
2023/12/21 00:24:14;;;;;;;1.90;1.38;;;6.20;99.90;;;;;;4974524;28;20033;-65
2023/12/21 00:26:39;;;;;;;1.58;0.75;;;6.30;99.90;;;;;;4991838;28;20030;-64
2023/12/21 00:29:08;;;;;;;0.82;0.63;;;6.20;99.90;;;;;;4992027;28;20418;-65
2023/12/21 00:31:33;;;;;;;1.35;0.93;;;6.20;99.90;;;;;;4991598;28;20026;-64
2023/12/21 00:33:59;;;;;;;1.45;0.82;;;6.20;99.90;;;;;;4974761;28;20525;-64
2023/12/21 00:36:25;;;;;;;0.65;0.65;;;6.20;99.90;;;;;;4991707;28;20382;-64
2023/12/21 00:38:51;;;;;;;0.82;0.63;;;6.20;99.90;;;;;;4992263;28;20788;-65
2023/12/21 00:41:16;;;;;;;0.65;0.50;;;6.30;99.90;;;;;;4991332;28;20026;-65
2023/12/21 00:43:42;;;;;;;1.05;0.70;;;6.20;99.90;;;;;;4991379;28;20035;-65
2023/12/21 00:46:08;;;;;;;0.82;0.65;;;6.20;99.90;;;;;;4991254;28;20128;-65
2023/12/21 00:48:33;;;;;;;5.47;0.85;;;6.30;99.90;;;;;;4991632;28;20047;-65
2023/12/21 00:50:59;;;;;;;2.50;0.50;;;6.30;99.90;;;;;;4991729;28;20101;-65
2023/12/21 00:53:25;;;;;;;0.85;0.40;;;6.20;99.90;;;;;;4973873;28;20042;-64
2023/12/21 00:55:50;;;;;;;0.40;0.40;;;6.20;99.90;;;;;;4992111;28;20038;-65
2023/12/21 00:58:16;;;;;;;0.40;0.40;;;6.30;99.90;;;;;;4990384;28;20034;-64
2023/12/21 01:00:42;;;;;;;1.08;0.55;;;6.30;99.90;;;;;;4974500;28;20049;-64
2023/12/21 01:03:08;;;;;;;1.92;0.90;;;6.30;99.90;;;;;;4956951;28;20026;-64
2023/12/21 01:05:34;;;;;;;0.40;0.32;;;6.30;99.90;;;;;;4992158;28;20475;-65
2023/12/21 01:08:00;;;;;;;1.02;0.50;;;6.40;99.90;;;;;;4991338;28;20165;-65
2023/12/21 01:10:25;;;;;;;0.95;0.52;;;6.40;99.90;;;;;;4991848;28;20472;-65
2023/12/21 01:12:51;;;;;;;1.70;0.88;;;6.40;99.90;;;;;;4991236;28;20088;-64
2023/12/21 01:15:17;;;;;;;1.08;0.30;;;6.40;99.90;;;;;;4974322;28;20054;-64
2023/12/21 01:17:43;;;;;;;0.88;0.63;;;6.40;99.90;;;;;;4974123;28;20070;-64
2023/12/21 01:20:10;;;;;;;0.93;0.63;;;6.40;99.90;;;;;;4992203;28;20133;-64
2023/12/21 01:22:35;;;;;;;4.10;0.82;;;6.50;99.90;;;;;;4991287;28;20030;-65
2023/12/21 01:25:01;;;;;;;0.28;0.20;;;6.40;99.90;;;;;;4991757;28;20034;-64
2023/12/21 01:27:28;;;;;;;1.05;0.65;;;6.40;99.90;;;;;;4973794;28;20471;-65
2023/12/21 01:29:54;;;;;;;0.57;0.45;;;6.40;99.90;;;;;;4991803;28;20111;-65
2023/12/21 01:32:19;;;;;;;0.40;0.40;;;6.50;99.90;;;;;;4977026;28;20628;-64
2023/12/21 01:34:45;;;;;;;0.77;0.50;;;6.40;99.90;;;;;;4977793;28;20042;-65
2023/12/21 01:37:12;;;;;;;0.30;0.20;;;6.40;99.90;;;;;;4977116;28;20034;-65
2023/12/21 01:39:38;;;;;;;0.22;0.22;;;6.40;99.90;;;;;;4961683;28;20026;-64
2023/12/21 01:42:04;;;;;;;0.32;0.30;;;6.40;99.90;;;;;;4994696;28;20030;-64
2023/12/21 01:44:30;;;;;;;0.60;0.45;;;6.40;99.90;;;;;;4995223;28;20022;-64
2023/12/21 01:46:56;;;;;;;5.32;1.17;;;6.40;99.90;;;;;;4995236;28;20044;-65
2023/12/21 01:49:22;;;;;;;1.00;0.35;;;6.40;99.90;;;;;;4994772;28;20053;-65
2023/12/21 01:51:48;;;;;;;0.28;0.25;;;6.40;99.90;;;;;;4961854;28;20101;-64
2023/12/21 01:54:14;;;;;;;0.40;0.30;;;6.40;99.90;;;;;;5002675;23;20069;-63
2023/12/21 01:56:40;;;;;;;0.75;0.60;;;6.40;99.90;;;;;;4975521;28;20398;-64
2023/12/21 01:59:06;;;;;;;0.52;0.38;;;6.40;99.90;;;;;;4975030;28;20078;-64
2023/12/21 02:01:32;;;;;;;0.10;0.10;;;6.40;99.90;;;;;;4975348;28;20477;-64
2023/12/21 02:03:59;;;;;;;0.43;0.38;;;6.40;99.90;;;;;;4958417;28;20037;-64
2023/12/21 02:06:25;;;;;;;1.65;0.57;;;6.40;99.90;;;;;;4972880;28;20033;-64
2023/12/21 02:08:51;;;;;;;0.82;0.30;;;6.40;99.90;;;;;;4974643;28;20039;-64
2023/12/21 02:11:17;;;;;;;0.75;0.43;;;6.40;99.90;;;;;;4964742;28;20033;-64
2023/12/21 02:13:42;;;;;;;0.52;0.38;;;6.40;99.90;;;;;;4974204;28;20058;-64
2023/12/21 02:16:23;;;;;;;0.75;0.47;;;6.50;99.90;;;;;;4955379;28;20069;-64
2023/12/21 02:18:50;;;;;;;1.48;0.50;;;6.50;99.90;;;;;;4955338;28;20072;-64
2023/12/21 02:21:16;;;;;;;0.40;0.20;;;6.40;99.90;;;;;;4941858;28;20039;-64
2023/12/21 02:23:45;;;;;;;0.77;0.73;;;6.50;99.90;;;;;;4956687;28;20468;-65
2023/12/21 02:26:13;;;;;;;1.38;0.50;;;6.50;99.90;;;;;;4955536;28;20027;-65
2023/12/21 02:28:39;;;;;;;0.80;0.47;;;6.50;99.90;;;;;;4974295;28;20019;-65
2023/12/21 02:31:04;;;;;;;0.25;0.22;;;6.50;99.90;;;;;;4956967;28;20038;-65
2023/12/21 02:33:30;;;;;;;1.13;0.88;;;6.60;99.90;;;;;;4974639;28;20031;-65
2023/12/21 02:35:56;;;;;;;1.55;0.43;;;6.50;99.90;;;;;;4957397;28;20558;-65
2023/12/21 02:38:23;;;;;;;0.77;0.38;;;6.50;99.90;;;;;;4974657;28;20050;-65
2023/12/21 02:40:49;;;;;;;0.20;0.20;;;6.60;99.90;;;;;;4964400;28;20546;-65
2023/12/21 02:43:15;;;;;;;0.57;0.28;;;6.60;99.90;;;;;;4957420;28;20070;-65
2023/12/21 02:45:40;;;;;;;1.13;0.32;;;6.60;99.90;;;;;;4974297;28;20027;-65
2023/12/21 02:48:07;;;;;;;1.00;0.73;;;6.60;99.90;;;;;;4974579;28;20108;-65
2023/12/21 02:50:32;;;;;;;0.90;0.77;;;6.50;99.90;;;;;;4974298;28;20023;-64
2023/12/21 02:52:58;;;;;;;0.75;0.60;;;6.50;99.90;;;;;;4957269;28;20053;-65
2023/12/21 02:55:24;;;;;;;1.02;0.63;;;6.50;99.90;;;;;;4973688;28;20154;-64
2023/12/21 02:57:49;;;;;;;0.60;0.45;;;6.50;99.90;;;;;;4974309;28;20030;-64
2023/12/21 03:00:16;;;;;;;1.58;0.55;;;6.50;99.90;;;;;;4954003;28;20039;-66
2023/12/21 03:02:41;;;;;;;1.00;0.63;;;6.50;99.90;;;;;;4973704;28;20039;-64
2023/12/21 03:05:07;;;;;;;1.23;0.47;;;6.60;99.90;;;;;;4956312;28;20034;-64
2023/12/21 03:07:33;;;;;;;0.45;0.40;;;6.60;99.90;;;;;;4957105;28;20019;-64
2023/12/21 03:09:59;;;;;;;0.45;0.20;;;6.60;99.90;;;;;;4953693;28;20038;-64
2023/12/21 03:12:24;;;;;;;1.40;0.60;;;6.50;99.90;;;;;;4974188;28;20072;-65
2023/12/21 03:14:50;;;;;;;2.42;0.52;;;6.50;99.90;;;;;;4973516;28;20376;-64
2023/12/21 03:17:16;;;;;;;0.32;0.32;;;6.50;99.90;;;;;;4973977;28;20035;-65
2023/12/21 03:19:41;;;;;;;1.00;0.40;;;6.60;99.90;;;;;;4953818;28;20125;-64
2023/12/21 03:22:07;;;;;;;0.85;0.22;;;6.60;99.90;;;;;;4956504;28;20035;-64
2023/12/21 03:24:33;;;;;;;0.47;0.47;;;6.60;99.90;;;;;;4937824;28;20085;-64
2023/12/21 03:26:58;;;;;;;0.65;0.40;;;6.60;99.90;;;;;;4973900;28;20073;-64
2023/12/21 03:29:24;;;;;;;0.28;0.28;;;6.50;99.90;;;;;;4955870;28;20430;-65
2023/12/21 03:31:52;;;;;;;0.13;0.13;;;6.60;99.90;;;;;;4973888;28;20118;-65
2023/12/21 03:34:18;;;;;;;1.17;0.32;;;6.60;99.90;;;;;;4972952;28;20118;-65
2023/12/21 03:36:44;;;;;;;0.40;0.40;;;6.60;99.90;;;;;;4973810;28;20554;-64
2023/12/21 03:39:10;;;;;;;0.65;0.28;;;6.60;99.90;;;;;;4973198;28;20501;-65
2023/12/21 03:41:36;;;;;;;0.20;0.20;;;6.60;99.90;;;;;;4963020;28;20511;-66
2023/12/21 03:44:01;;;;;;;1.17;0.30;;;6.60;99.90;;;;;;4955470;28;20030;-64
2023/12/21 03:46:27;;;;;;;2.38;0.40;;;6.60;99.90;;;;;;4973592;28;20046;-65
2023/12/21 03:48:53;;;;;;;0.30;0.30;;;6.60;99.90;;;;;;4973219;28;20379;-64
2023/12/21 03:51:18;;;;;;;0.50;0.40;;;6.60;99.90;;;;;;4973246;28;20033;-65
2023/12/21 03:53:44;;;;;;;0.43;0.30;;;6.60;99.90;;;;;;4972490;28;20030;-65
2023/12/21 03:56:10;;;;;;;0.40;0.35;;;6.60;99.90;;;;;;4973534;28;20030;-64
2023/12/21 03:58:37;;;;;;;0.30;0.30;;;6.60;99.90;;;;;;4973446;28;20031;-64
2023/12/21 04:01:04;;;;;;;3.50;0.82;;;6.60;99.90;;;;;;4972932;28;20093;-66
2023/12/21 04:03:29;;;;;;;1.20;0.32;;;6.70;99.90;;;;;;4956037;28;20050;-64
2023/12/21 04:05:55;;;;;;;0.40;0.40;;;6.70;99.90;;;;;;4973125;28;20077;-65
2023/12/21 04:08:21;;;;;;;0.40;0.38;;;6.70;99.90;;;;;;4956155;28;20833;-65
2023/12/21 04:10:47;;;;;;;0.28;0.22;;;6.70;99.90;;;;;;4975316;28;20110;-65
2023/12/21 04:13:14;;;;;;;0.25;0.25;;;6.70;99.90;;;;;;4972797;28;20026;-64
2023/12/21 04:15:40;;;;;;;1.23;1.00;;;6.70;99.90;;;;;;4973935;28;20219;-65
2023/12/21 04:18:05;;;;;;;0.85;0.20;;;6.70;99.90;;;;;;4973350;28;20073;-65
2023/12/21 04:20:31;;;;;;;1.08;0.30;;;6.70;99.90;;;;;;4972675;28;20092;-65
2023/12/21 04:22:57;;;;;;;0.10;0.10;;;6.70;99.90;;;;;;4955104;28;20034;-65
2023/12/21 04:25:22;;;;;;;0.80;0.30;;;6.80;99.90;;;;;;4972551;28;20039;-64
2023/12/21 04:27:48;;;;;;;0.20;0.20;;;6.70;99.90;;;;;;4955455;28;20030;-64
2023/12/21 04:30:14;;;;;;;0.25;0.20;;;6.70;99.90;;;;;;4972168;28;20102;-64
2023/12/21 04:32:41;;;;;;;0.20;0.20;;;6.80;99.90;;;;;;4955366;28;20045;-65
2023/12/21 04:35:10;;;;;;;0.20;0.20;;;6.70;99.90;;;;;;4951696;28;20034;-64
2023/12/21 04:37:36;;;;;;;0.20;0.20;;;6.80;99.90;;;;;;4955517;28;20037;-64
2023/12/21 04:40:03;;;;;;;0.75;0.40;;;6.80;99.90;;;;;;4952008;28;20402;-64
2023/12/21 04:42:30;;;;;;;0.43;0.28;;;6.80;99.90;;;;;;4940578;28;20034;-64
2023/12/21 04:44:56;;;;;;;0.70;0.30;;;6.80;99.90;;;;;;4971762;28;20041;-65
2023/12/21 04:47:22;;;;;;;0.32;0.32;;;6.80;99.90;;;;;;4972496;28;20376;-64
2023/12/21 04:49:47;;;;;;;0.10;0.10;;;6.80;99.90;;;;;;4971976;28;20058;-63
2023/12/21 04:52:13;;;;;;;0.25;0.25;;;6.80;99.90;;;;;;4955175;28;20467;-64
2023/12/21 04:54:39;;;;;;;0.35;0.20;;;6.90;99.90;;;;;;4971658;28;20035;-64
2023/12/21 04:57:05;;;;;;;0.30;0.30;;;6.90;99.90;;;;;;4963095;28;20076;-64
2023/12/21 04:59:31;;;;;;;0.25;0.25;;;6.90;99.90;;;;;;4971950;28;20030;-64
2023/12/21 05:01:56;;;;;;;0.40;0.10;;;6.90;99.90;;;;;;4972288;28;20073;-65
2023/12/21 05:04:23;;;;;;;0.20;0.20;;;6.90;99.90;;;;;;4971333;28;20059;-64
2023/12/21 05:06:48;;;;;;;1.17;0.45;;;6.90;99.90;;;;;;4974802;28;20070;-64
2023/12/21 05:09:14;;;;;;;1.48;0.40;;;6.90;99.90;;;;;;4975539;28;20027;-64
2023/12/21 05:11:40;;;;;;;0.50;0.28;;;7.00;99.90;;;;;;4976275;28;20031;-64
2023/12/21 05:14:06;;;;;;;0.30;0.30;;;7.00;99.90;;;;;;4975380;28;20041;-64
2023/12/21 05:16:32;;;;;;;0.40;0.40;;;6.90;99.90;;;;;;4976503;28;20534;-64
2023/12/21 05:18:57;;;;;;;0.73;0.50;;;6.90;99.90;;;;;;4975859;28;20035;-64
2023/12/21 05:21:23;;;;;;;0.57;0.40;;;6.90;99.90;;;;;;4976111;28;20022;-64
2023/12/21 05:23:49;;;;;;;0.35;0.15;;;6.90;99.90;;;;;;4975308;28;20041;-64
2023/12/21 05:26:15;;;;;;;2.30;0.55;;;6.90;99.90;;;;;;4976900;28;20031;-64
2023/12/21 05:28:42;;;;;;;0.20;0.20;;;6.90;99.90;;;;;;4957935;28;20034;-64
2023/12/21 05:31:09;;;;;;;0.28;0.28;;;7.00;99.90;;;;;;4958042;28;20383;-64
2023/12/21 05:33:35;;;;;;;0.57;0.30;;;7.00;99.90;;;;;;4970982;28;20034;-64
2023/12/21 05:36:02;;;;;;;0.10;0.10;;;7.00;99.90;;;;;;4951705;28;20104;-65
2023/12/21 05:38:29;;;;;;;0.20;0.20;;;7.00;99.90;;;;;;4957967;28;20041;-65
2023/12/21 05:40:54;;;;;;;0.10;0.10;;;7.00;99.90;;;;;;4969965;28;20438;-64
2023/12/21 05:43:21;;;;;;;0.20;0.20;;;7.10;99.90;;;;;;4971569;28;20162;-64
2023/12/21 05:45:47;;;;;;;0.50;0.30;;;7.10;99.90;;;;;;4974847;28;20173;-65
2023/12/21 05:48:12;;;;;;;0.80;0.40;;;7.10;99.90;;;;;;4957968;28;20113;-65
2023/12/21 05:50:38;;;;;;;1.45;0.50;;;7.20;99.90;;;;;;4974281;28;20030;-65
2023/12/21 05:53:04;;;;;;;0.47;0.25;;;7.20;99.90;;;;;;4975168;28;20867;-66
2023/12/21 05:55:31;;;;;;;1.77;0.43;;;7.20;99.90;;;;;;4974949;28;20053;-64
2023/12/21 05:57:57;;;;;;;0.30;0.28;;;7.30;99.90;;;;;;4958081;28;20117;-64
2023/12/21 06:00:23;;;;;;;0.25;0.25;;;7.30;99.90;;;;;;4975365;28;20186;-65
2023/12/21 06:02:48;;;;;;;0.40;0.30;;;7.30;99.90;;;;;;4976760;28;20033;-65
2023/12/21 06:05:14;;;;;;;3.70;0.40;;;7.40;99.90;;;;;;4976693;28;20042;-65
2023/12/21 06:07:40;;;;;;;0.82;0.30;;;7.30;99.90;;;;;;4951989;28;20031;-65
2023/12/21 06:10:08;;;;;;;2.38;1.15;;;7.40;99.90;;;;;;4954440;28;20109;-66
2023/12/21 06:12:34;;;;;;;0.30;0.20;;;7.40;99.90;;;;;;4975864;28;20066;-64
2023/12/21 06:15:00;;;;;;;0.30;0.20;;;7.40;99.90;;;;;;4975300;28;20034;-63
2023/12/21 06:17:26;;;;;;;0.10;0.10;;;7.40;99.90;;;;;;4977840;28;20098;-64
2023/12/21 06:19:52;;;;;;;0.13;0.13;;;7.40;99.90;;;;;;4953294;28;20452;-63
2023/12/21 06:22:18;;;;;;;0.15;0.15;;;7.50;99.90;;;;;;4975119;28;20472;-65
2023/12/21 06:24:44;;;;;;;0.10;0.10;;;7.50;99.90;;;;;;4980568;28;20039;-64
2023/12/21 06:27:09;;;;;;;0.25;0.25;;;7.50;99.90;;;;;;4977923;28;20089;-64
2023/12/21 06:29:35;;;;;;;0.10;0.10;;;7.50;99.90;;;;;;4974379;28;20074;-61
2023/12/21 06:32:02;;;;;;;0.10;0.10;;;7.50;99.90;;;;;;4975101;28;20038;-61
2023/12/21 06:34:28;;;;;;;0.47;0.20;;;7.50;99.90;;;;;;4974143;28;20027;-65
2023/12/21 06:36:53;;;;;;;0.00;0.00;;;7.50;99.90;;;;;;4974899;28;20035;-62
2023/12/21 06:39:19;;;;;;;0.10;0.10;;;7.50;99.90;;;;;;4974200;28;20086;-62
2023/12/21 06:41:46;;;;;;;0.10;0.10;;;7.50;99.90;;;;;;4974937;28;20511;-62
2023/12/21 06:44:11;;;;;;;0.10;0.10;;;7.60;99.90;;;;;;4954261;28;20065;-61
2023/12/21 06:46:37;;;;;;;0.28;0.20;;;7.60;99.90;;;;;;4954277;28;20492;-61
2023/12/21 06:49:03;;;;;;;0.10;0.10;;;7.60;99.90;;;;;;4970848;28;20641;-60
2023/12/21 06:51:28;;;;;;;0.20;0.20;;;7.60;99.90;;;;;;4974327;28;20070;-60
2023/12/21 06:53:54;;;;;;;1.38;0.82;;;7.60;99.90;;;;;;4973998;28;20027;-61
2023/12/21 06:56:20;;;;;;;0.30;0.30;;;7.60;99.90;;;;;;4974440;28;20398;-62
2023/12/21 06:58:45;;;;;;;0.20;0.10;;;7.60;99.90;;;;;;4956938;28;20031;-61
2023/12/21 07:01:12;;;;;;;0.10;0.10;;;7.60;99.90;;;;;;4963169;28;20047;-62
2023/12/21 07:03:38;;;;;;;0.20;0.15;;;7.60;99.90;;;;;;4973995;28;20076;-61
2023/12/21 07:06:03;;;;;;;0.00;0.00;;;7.60;99.90;;;;;;4974133;28;20102;-61
2023/12/21 07:08:29;;;;;;;0.20;0.17;;;7.60;99.90;;;;;;4974525;28;20037;-61
2023/12/21 07:10:55;;;;;;;0.10;0.10;;;7.60;99.90;;;;;;4974230;28;20046;-62
2023/12/21 07:13:21;;;;;;;0.10;0.10;;;7.60;99.90;;;;;;4956893;28;20031;-62
2023/12/21 07:15:47;;;;;;;0.15;0.15;;;7.60;99.90;;;;;;4973519;28;20046;-61
2023/12/21 07:18:12;;;;;;;0.65;0.25;;;7.50;99.90;;;;;;4973676;28;20174;-67
2023/12/21 07:20:38;;;;;;;0.00;0.00;;;7.50;99.90;;;;;;4974005;28;20062;-67
2023/12/21 07:23:04;;;;;;;0.15;0.10;;;7.50;99.90;;;;;;4974028;28;20030;-67
2023/12/21 07:25:30;;;;;;;0.15;0.15;;;7.50;99.90;;;;;;4953384;28;20041;-62
2023/12/21 07:27:55;;;;;;;0.10;0.10;;;7.60;99.90;;;;;;4973714;28;20031;-62
2023/12/21 07:30:21;;;;;;;0.35;0.35;;;7.50;99.90;;;;;;4973053;28;20043;-62
2023/12/21 07:32:47;;;;;;;0.10;0.10;;;7.60;99.90;;;;;;4973998;28;20041;-62
2023/12/21 07:35:13;;;;;;;0.10;0.10;;;7.60;99.90;;;;;;4973152;28;20035;-64
2023/12/21 07:37:38;;;;;;;0.28;0.17;;;7.50;99.90;;;;;;4956674;28;20506;-63
2023/12/21 07:40:05;;;;;;;0.50;0.40;;;7.50;99.90;;;;;;4973495;28;20035;-61
2023/12/21 07:42:31;;;;;;;0.15;0.15;;;7.50;99.90;;;;;;4972481;28;20034;-63
2023/12/21 07:44:56;;;;;;;5.85;0.52;;;7.50;99.90;;;;;;4973410;28;20039;-62
2023/12/21 07:47:22;;;;;;;0.10;0.10;;;7.50;99.90;;;;;;4973976;28;20034;-60
2023/12/21 07:49:48;;;;;;;0.20;0.20;;;7.50;99.90;;;;;;4955699;28;20049;-61
2023/12/21 07:52:14;;;;;;;0.10;0.10;;;7.50;99.90;;;;;;4973451;28;20031;-61
2023/12/21 07:54:42;;;;;;;0.10;0.10;;;7.50;99.90;;;;;;4994804;23;20562;-61
2023/12/21 07:57:10;;;;;;;0.25;0.22;;;7.60;99.90;;;;;;4992142;28;20026;-61
2023/12/21 07:59:36;;;;;;;0.28;0.20;;;7.60;99.90;;;;;;4991869;28;20109;-62
2023/12/21 08:02:02;;;;;;;0.38;0.10;;;7.70;99.90;;;;;;4992078;28;20126;-63
2023/12/21 08:04:28;;;;;;;0.10;0.10;;;7.70;99.90;;;;;;4988159;28;20106;-62
2023/12/21 08:06:54;;;;;;;0.10;0.10;;;7.70;99.90;;;;;;4986990;28;20459;-61
2023/12/21 08:09:20;;;;;;;0.90;0.30;;;7.70;99.90;;;;;;4990574;28;20030;-62
2023/12/21 08:11:45;;;;;;;0.10;0.10;;;7.70;99.90;;;;;;4988225;28;20398;-61
2023/12/21 08:14:11;;;;;;;0.55;0.40;;;7.70;99.90;;;;;;4986626;28;20039;-61
2023/12/21 08:16:37;;;;;;;0.17;0.17;;;7.80;99.90;;;;;;4991662;28;20114;-61
2023/12/21 08:19:03;;;;;;;0.17;0.10;;;7.70;99.90;;;;;;4988653;28;20026;-62
2023/12/21 08:21:29;;;;;;;0.10;0.10;;;7.70;99.90;;;;;;4983840;28;20022;-62
2023/12/21 08:23:55;;;;;;;0.10;0.10;;;7.80;99.90;;;;;;4981410;28;20497;-63
2023/12/21 08:26:21;;;;;;;0.95;0.20;;;7.70;99.90;;;;;;4983356;28;20035;-61
2023/12/21 08:28:46;;;;;;;0.20;0.20;;;7.80;99.90;;;;;;4983621;28;20517;-62
2023/12/21 08:31:26;;;;;;;1.45;0.20;;;7.80;99.90;;;;;;4982608;28;20026;-61
2023/12/21 08:33:52;;;;;;;1.15;0.20;;;7.90;99.90;;;;;;4984740;28;20061;-62
2023/12/21 08:36:18;;;;;;;0.28;0.28;;;7.90;99.90;;;;;;4989695;28;20108;-62
2023/12/21 08:38:44;;;;;;;0.20;0.20;;;7.90;99.90;;;;;;4973163;28;20494;-61
2023/12/21 08:41:10;;;;;;;0.10;0.10;;;7.90;99.90;;;;;;4987615;28;20520;-61
2023/12/21 08:43:38;;;;;;;0.00;0.00;;;8.00;99.90;;;;;;4983275;28;20053;-63
2023/12/21 08:46:04;;;;;;;0.00;0.00;;;8.00;99.90;;;;;;4969330;28;20429;-62
2023/12/21 08:48:30;;;;;;;0.10;0.10;;;8.00;99.90;;;;;;4991108;28;20037;-61
2023/12/21 08:50:56;;;;;;;0.10;0.10;;;8.00;99.90;;;;;;4987613;28;20166;-63
2023/12/21 08:53:22;;;;;;;0.10;0.10;;;8.00;99.90;;;;;;4990549;28;20533;-62
2023/12/21 08:55:48;;;;;;;0.10;0.10;;;8.00;99.90;;;;;;4954211;28;1074917;-61
2023/12/21 08:58:14;;;;;;;0.17;0.13;;;8.00;99.90;;;;;;4991680;28;20288;-61
2023/12/21 09:00:40;;;;;;;0.10;0.10;;;8.00;99.90;;;;;;4987290;28;20575;-49
2023/12/21 09:03:06;;;;;;;0.20;0.20;;;8.00;99.90;;;;;;4989839;28;20030;-63
2023/12/21 09:05:32;;;;;;;0.10;0.10;;;8.10;99.90;;;;;;4987594;28;20482;-62
2023/12/21 09:07:57;;;;;;;0.10;0.10;;;8.10;99.90;;;;;;4989928;28;20030;-62
2023/12/21 09:10:23;;;;;;;0.20;0.20;;;8.10;99.90;;;;;;4973835;28;20034;-63
2023/12/21 09:12:49;;;;;;;0.13;0.10;;;8.10;99.90;;;;;;4991803;28;20450;-63
2023/12/21 09:15:14;;;;;;;0.98;0.30;;;8.10;99.90;;;;;;4991211;28;20045;-63
2023/12/21 09:17:40;;;;;;;0.45;0.30;;;8.10;99.90;;;;;;4992019;28;20034;-63
2023/12/21 09:20:08;;;;;;;0.57;0.20;;;8.00;99.90;;;;;;4988369;28;20042;-65
2023/12/21 09:22:34;;;;;;;0.20;0.20;;;8.00;99.90;;;;;;4966769;28;20038;-66
2023/12/21 09:25:02;;;;;;;0.63;0.30;;;8.00;99.90;;;;;;4991374;28;20034;-66
2023/12/21 09:27:28;;;;;;;0.40;0.30;;;8.10;99.90;;;;;;4974429;28;20022;-66
2023/12/21 09:29:54;;;;;;;0.10;0.10;;;8.10;99.90;;;;;;4991137;28;20042;-65
2023/12/21 09:32:20;;;;;;;0.15;0.15;;;8.10;99.90;;;;;;4990280;28;20043;-66
2023/12/21 09:34:47;;;;;;;0.00;0.00;;;8.10;99.90;;;;;;4991218;28;20027;-66
2023/12/21 09:37:14;;;;;;;0.25;0.17;;;8.20;99.90;;;;;;4974506;28;20470;-66
2023/12/21 09:39:40;;;;;;;0.10;0.10;;;8.20;99.90;;;;;;4969311;28;20046;-67
2023/12/21 09:42:06;;;;;;;0.40;0.30;;;8.20;99.90;;;;;;4986671;28;20490;-66
2023/12/21 09:44:34;;;;;;;0.10;0.10;;;8.20;99.90;;;;;;4990876;28;20037;-66
2023/12/21 09:47:06;;;;;;;0.13;0.10;;;8.30;99.90;;;;;;4991700;28;20030;-66
2023/12/21 09:49:36;;;;;;;0.10;0.10;;;8.30;99.90;;;;;;4989259;28;20022;-65
2023/12/21 09:52:08;;;;;;;0.10;0.10;;;8.30;99.90;;;;;;4991215;28;20121;-66
2023/12/21 09:54:41;;;;;;;0.10;0.10;;;8.30;99.90;;;;;;4979255;28;20065;-66
2023/12/21 09:57:09;;;;;;;0.15;0.15;;;8.30;99.90;;;;;;4996419;28;20039;-66
2023/12/21 09:59:35;;;;;;;0.10;0.10;;;8.20;99.90;;;;;;4986771;28;20034;-66
2023/12/21 10:02:07;;;;;;;0.00;0.00;;;8.30;99.90;;;;;;4974380;28;20026;-66
2023/12/21 10:04:33;;;;;;;0.13;0.13;;;8.40;99.90;;;;;;4978029;28;20037;-66
2023/12/21 10:06:58;;;;;;;0.17;0.17;;;8.40;99.90;;;;;;4993864;28;20026;-66
2023/12/21 10:09:25;;;;;;;0.10;0.10;;;8.50;99.90;;;;;;4976383;28;20088;-66
2023/12/21 10:11:51;;;;;;;0.10;0.10;;;8.50;99.90;;;;;;4993516;28;20034;-66
2023/12/21 10:14:21;;;;;;;0.20;0.20;;;8.50;99.90;;;;;;4988952;28;20471;-67
2023/12/21 10:16:47;;;;;;;0.00;0.00;;;8.50;99.90;;;;;;4977950;28;20093;-66
2023/12/21 10:19:15;;;;;;;0.13;0.13;;;8.60;99.90;;;;;;4992886;28;20030;-67
2023/12/21 10:21:41;;;;;;;0.20;0.20;;;8.60;99.90;;;;;;4980823;28;20030;-66
2023/12/21 10:24:10;;;;;;;0.10;0.10;;;8.50;99.90;;;;;;4956565;28;20505;-66
2023/12/21 10:26:47;;;;;;;0.10;0.10;;;8.50;99.90;;;;;;4969110;28;20482;-66
2023/12/21 10:29:17;;;;;;;0.22;0.15;;;8.60;99.90;;;;;;4992735;28;20023;-65
2023/12/21 10:31:48;;;;;;;0.10;0.10;;;8.60;99.90;;;;;;4996887;28;20110;-66
2023/12/21 10:34:17;;;;;;;0.20;0.20;;;8.60;99.90;;;;;;4964600;28;20435;-66
2023/12/21 10:36:44;;;;;;;0.10;0.10;;;8.60;99.90;;;;;;4986635;28;20036;-67
2023/12/21 10:39:15;;;;;;;0.28;0.20;;;8.70;99.90;;;;;;5009018;28;20124;-67
2023/12/21 10:41:45;;;;;;;0.30;0.20;;;8.80;99.90;;;;;;4995971;28;20040;-66
2023/12/21 10:44:12;;;;;;;0.00;0.00;;;8.90;99.90;;;;;;4979111;28;20033;-66
2023/12/21 10:46:39;;;;;;;0.00;0.00;;;8.90;99.90;;;;;;4991442;28;20117;-66
2023/12/21 10:49:06;;;;;;;0.13;0.10;;;9.00;99.90;;;;;;5013492;28;20564;-66
2023/12/21 10:51:37;;;;;;;0.13;0.13;;;9.10;99.90;;;;;;5012807;28;20026;-66
2023/12/21 10:54:06;;;;;;;0.10;0.10;;;9.10;99.90;;;;;;4995597;28;20041;-66
2023/12/21 10:56:34;;;;;;;0.00;0.00;;;9.20;99.90;;;;;;5012835;28;20034;-66
2023/12/21 10:59:02;;;;;;;0.00;0.00;;;9.20;99.90;;;;;;5003801;28;20041;-66
2023/12/21 11:01:30;;;;;;;0.00;0.00;;;9.20;99.90;;;;;;5011627;28;20088;-66
2023/12/21 11:04:01;;;;;;;0.10;0.10;;;9.30;99.90;;;;;;4994052;28;20450;-66
2023/12/21 11:06:27;;;;;;;0.00;0.00;;;9.30;99.90;;;;;;5012802;28;20397;-66
2023/12/21 11:08:57;;;;;;;0.10;0.10;;;9.30;99.90;;;;;;4990811;28;20493;-66
2023/12/21 11:11:25;;;;;;;0.00;0.00;;;9.30;99.90;;;;;;5011961;28;20033;-65
2023/12/21 11:13:55;;;;;;;0.10;0.10;;;9.20;99.90;;;;;;5005758;28;20756;-66
2023/12/21 11:17:08;;;;;;;0.05;0.05;;;9.20;99.90;;;;;;4986154;28;20041;-66
2023/12/21 11:19:38;;;;;;;0.28;0.20;;;9.20;99.90;;;;;;5005326;28;20029;-66
2023/12/21 11:22:04;;;;;;;0.08;0.08;;;9.10;99.90;;;;;;5009424;28;20038;-66
2023/12/21 11:24:30;;;;;;;2.05;0.10;;;9.20;99.90;;;;;;5003511;28;20038;-66
2023/12/21 11:26:59;;;;;;;0.40;0.20;;;9.10;99.90;;;;;;5012380;28;20028;-66
2023/12/21 11:29:27;;;;;;;0.03;0.03;;;9.10;99.90;;;;;;4996239;28;20022;-65
2023/12/21 11:31:55;;;;;;;0.10;0.10;;;9.10;99.90;;;;;;5011604;28;20064;-66
2023/12/21 11:34:39;;;;;;;0.47;0.22;;;9.20;99.90;;;;;;4995533;28;20113;-67
2023/12/21 11:37:37;;;;;;;0.00;0.00;;;9.20;99.90;;;;;;5006164;28;20479;-66
2023/12/21 11:40:04;;;;;;;0.32;0.20;;;9.30;99.90;;;;;;4971656;28;20038;-66
2023/12/21 11:42:35;;;;;;;0.08;0.08;;;9.20;99.90;;;;;;5007481;28;20478;-66
2023/12/21 11:45:11;;;;;;;0.10;0.10;;;9.10;99.90;;;;;;5000851;28;20029;-66
2023/12/21 11:47:38;;;;;;;1.08;0.45;;;9.10;99.90;;;;;;4998414;28;20037;-65
2023/12/21 11:50:09;;;;;;;0.20;0.20;;;9.10;99.90;;;;;;5010778;28;20433;-65
2023/12/21 11:52:35;;;;;;;;;;;9.00;99.90;;;;;;5004300;28;20033;-66
2023/12/21 11:55:01;;;;;;;1.45;0.10;;;9.00;99.90;;;;;;5007927;28;19924;-66
2023/12/21 11:57:29;;;;;;;0.10;0.10;;;9.00;99.90;;;;;;5011643;28;20120;-66
2023/12/21 12:00:09;;;;;;;0.22;0.20;;;9.00;99.90;;;;;;5011052;28;20113;-66
2023/12/21 12:02:35;;;;;;;0.20;0.15;;;9.00;99.90;;;;;;4998701;28;20092;-66
2023/12/21 12:05:04;;;;;;;0.43;0.10;;;9.00;99.90;;;;;;5011254;28;20026;-66
2023/12/21 12:07:33;;;;;;;0.22;0.10;;;9.00;99.90;;;;;;5006531;28;20470;-66
2023/12/21 12:10:00;;;;;;;0.25;0.10;;;9.00;99.90;;;;;;5010547;28;20397;-66
2023/12/21 12:12:26;;;;;;;0.10;0.10;;;9.00;99.90;;;;;;5005825;28;20018;-65
2023/12/21 12:14:52;;;;;;;0.20;0.13;;;9.00;99.90;;;;;;5009850;28;20060;-65
2023/12/21 12:17:18;;;;;;;0.00;0.00;;;9.00;99.90;;;;;;5010860;28;20034;-65
2023/12/21 12:19:44;;;;;;;0.10;0.10;;;9.00;99.90;;;;;;5009668;28;20033;-65
2023/12/21 12:22:10;;;;;;;0.95;0.35;;;9.00;99.90;;;;;;4991164;28;20034;-66
2023/12/21 12:24:36;;;;;;;0.00;0.00;;;9.00;99.90;;;;;;5009926;28;20025;-66
2023/12/21 12:27:02;;;;;;;0.00;0.00;;;9.10;99.90;;;;;;5005406;28;20502;-66
2023/12/21 12:29:29;;;;;;;0.10;0.10;;;9.10;99.90;;;;;;5009792;28;21653;-66
2023/12/21 12:31:55;;;;;;;0.32;0.20;;;9.10;99.90;;;;;;5007820;28;20467;-66
2023/12/21 12:34:22;;;;;;;0.00;0.00;;;9.10;99.90;;;;;;4993520;28;20750;-66
2023/12/21 12:36:55;;;;;;;0.10;0.10;;;9.10;99.90;;;;;;5012262;28;20037;-66
2023/12/21 12:39:21;;;;;;;0.10;0.10;;;9.10;99.90;;;;;;4992974;28;20030;-66
2023/12/21 12:41:57;;;;;;;0.47;0.20;;;9.10;99.90;;;;;;5010538;28;20036;-65
2023/12/21 12:44:25;;;;;;;0.47;0.20;;;9.10;99.90;;;;;;4993345;28;20034;-66
2023/12/21 12:46:51;;;;;;;0.00;0.00;;;9.10;99.90;;;;;;5010325;28;20381;-66
2023/12/21 12:49:17;;;;;;;1.08;0.28;;;9.10;99.90;;;;;;5002071;28;20029;-66
2023/12/21 12:51:44;;;;;;;0.35;0.10;;;9.10;99.90;;;;;;5003742;28;20461;-66
2023/12/21 12:54:09;;;;;;;0.10;0.10;;;9.10;99.90;;;;;;4991343;28;20037;-66
2023/12/21 12:56:48;;;;;;;0.43;0.17;;;9.10;99.90;;;;;;5006046;28;20038;-66